Terminal Aerodrome Forecast
Issued by NWS

Home | Current Version | Previous Version | Text Only | Print | Product List | Glossary On
Versions: 1 2 3 4 5 6 7 8 9 10 11 12 13 14 15 16 17 18 19
242
FTUS41 KPBZ 200739 AAA
TAFFKL
TAF AMD
KFKL 200739Z 2008/2106 26007KT P6SM VCSH OVC005
     FM201200 29005KT P6SM BKN008
     FM201400 30007KT P6SM BKN035
     FM210200 00000KT P6SM BKN070=

USA.gov is the U.S. government's official web portal to all federal, state and local government web resources and services.